Time;durP1;ratioP1;P1;durP2;ratioP2;P2;SDS_P1;SDS_P2;PMS_P1;PMS_P2;Temp;Humidity;BMP_temperature;BMP_pressure;BME280_temperature;BME280_humidity;BME280_pressure;Samples;Min_cycle;Max_cycle;Signal;HPM_P1;HPM_P2
2021/12/04 00:02:26;;;;;;;;;;;1.40;99.90;;;;;;5030535;28;19925;-77
2021/12/04 00:04:55;;;;;;;;;;;1.40;99.90;;;;;;5039388;28;19925;-77
2021/12/04 00:07:23;;;;;;;;;;;1.40;99.90;;;;;;5026847;28;19925;-77
2021/12/04 00:09:51;;;;;;;;;;;1.40;99.90;;;;;;5041534;28;19933;-77
2021/12/04 00:12:20;;;;;;;;;;;1.40;99.90;;;;;;5018577;28;20449;-77
2021/12/04 00:14:48;;;;;;;;;;;1.40;99.90;;;;;;5022754;28;19936;-77
2021/12/04 00:17:15;;;;;;;;;;;1.40;99.90;;;;;;5024664;28;20334;-77
2021/12/04 00:19:42;;;;;;;;;;;1.40;99.90;;;;;;5026070;28;20026;-77
2021/12/04 00:22:09;;;;;;;;;;;1.40;99.90;;;;;;5022628;28;19929;-77
2021/12/04 00:24:37;;;;;;;;;;;1.40;99.90;;;;;;5023996;28;19926;-77
2021/12/04 00:27:04;;;;;;;;;;;1.40;99.90;;;;;;5025927;28;19929;-78
2021/12/04 00:29:32;;;;;;;;;;;1.40;99.90;;;;;;5024086;28;19925;-77
2021/12/04 00:32:02;;;;;;;;;;;1.40;99.90;;;;;;5039035;28;19925;-77
2021/12/04 00:34:30;;;;;;;;;;;1.40;99.90;;;;;;5024319;28;19925;-77
2021/12/04 00:50:40;;;;;;;;;;;1.40;99.90;;;;;;5022798;28;19921;-77
2021/12/04 00:53:07;;;;;;;;;;;1.40;99.90;;;;;;5028121;28;19929;-78
2021/12/04 00:55:34;;;;;;;;;;;1.40;99.90;;;;;;5027955;28;19925;-77
2021/12/04 00:58:01;;;;;;;;;;;1.40;99.90;;;;;;5027633;28;19926;-76
2021/12/04 01:00:29;;;;;;;;;;;1.40;99.90;;;;;;5037357;28;20310;-77
2021/12/04 01:02:56;;;;;;;;;;;1.40;99.90;;;;;;5024615;28;20269;-78
2021/12/04 01:05:23;;;;;;;;;;;1.40;99.90;;;;;;5026665;28;20349;-77
2021/12/04 01:07:50;;;;;;;;;;;1.40;99.90;;;;;;5026109;28;19933;-77
2021/12/04 01:10:17;;;;;;;;;;;1.40;99.90;;;;;;5026891;28;19999;-77
2021/12/04 01:12:44;;;;;;;;;;;1.40;99.90;;;;;;5021570;28;19925;-77
2021/12/04 01:15:11;;;;;;;;;;;1.40;99.90;;;;;;5017990;28;20383;-77
2021/12/04 01:17:39;;;;;;;;;;;1.40;99.90;;;;;;5037430;28;20403;-77
2021/12/04 01:20:06;;;;;;;;;;;1.40;99.90;;;;;;5018251;28;19929;-77
2021/12/04 01:22:34;;;;;;;;;;;1.40;99.90;;;;;;5022082;28;20028;-78
2021/12/04 01:25:01;;;;;;;;;;;1.40;99.90;;;;;;5017652;28;19984;-77
2021/12/04 01:27:28;;;;;;;;;;;1.40;99.90;;;;;;5024855;28;19939;-77
2021/12/04 01:29:55;;;;;;;;;;;1.40;99.90;;;;;;5025334;28;19933;-77
2021/12/04 01:32:22;;;;;;;;;;;1.40;99.90;;;;;;5023188;28;19926;-77
2021/12/04 01:34:50;;;;;;;;;;;1.40;99.90;;;;;;5022839;28;20451;-77
2021/12/04 01:37:17;;;;;;;;;;;1.40;99.90;;;;;;5026065;28;19929;-77
2021/12/04 01:39:44;;;;;;;;;;;1.40;99.90;;;;;;5021964;28;19925;-77
2021/12/04 01:42:11;;;;;;;;;;;1.40;99.90;;;;;;5025771;28;19929;-77
2021/12/04 01:44:38;;;;;;;;;;;1.40;99.90;;;;;;5033815;28;19937;-77
2021/12/04 01:47:12;;;;;;;;;;;1.40;99.90;;;;;;5037349;28;19925;-78
2021/12/04 01:49:39;;;;;;;;;;;1.40;99.90;;;;;;5022096;28;19948;-77
2021/12/04 01:52:08;;;;;;;;;;;1.40;99.90;;;;;;5022322;28;20015;-77
2021/12/04 01:54:35;;;;;;;;;;;1.40;99.90;;;;;;5020739;28;19933;-77
2021/12/04 01:57:03;;;;;;;;;;;1.40;99.90;;;;;;5032165;28;19925;-77
2021/12/04 01:59:30;;;;;;;;;;;1.50;99.90;;;;;;5025093;28;19932;-77
2021/12/04 02:01:59;;;;;;;;;;;1.40;99.90;;;;;;5041053;28;19936;-77
2021/12/04 02:04:26;;;;;;;;;;;1.40;99.90;;;;;;5025303;28;19991;-77
2021/12/04 02:06:53;;;;;;;;;;;1.40;99.90;;;;;;5024928;28;19960;-77
2021/12/04 02:09:21;;;;;;;;;;;1.40;99.90;;;;;;5045379;28;19936;-77
2021/12/04 02:11:48;;;;;;;;;;;1.40;99.90;;;;;;5040755;28;19929;-77
2021/12/04 02:14:14;;;;;;;;;;;1.40;99.90;;;;;;5023067;28;19931;-77
2021/12/04 02:16:42;;;;;;;;;;;1.40;99.90;;;;;;5024707;28;19929;-77
2021/12/04 02:19:09;;;;;;;;;;;1.40;99.90;;;;;;5022401;28;20288;-77
2021/12/04 02:21:37;;;;;;;;;;;1.40;99.90;;;;;;5020467;28;19931;-77
2021/12/04 02:24:04;;;;;;;;;;;1.40;99.90;;;;;;5022337;28;19925;-78
2021/12/04 02:26:31;;;;;;;;;;;1.40;99.90;;;;;;5038656;28;19972;-77
2021/12/04 02:28:58;;;;;;;;;;;1.40;99.90;;;;;;5026965;28;19964;-77
2021/12/04 02:31:25;;;;;;;;;;;1.50;99.90;;;;;;5027796;28;19940;-78
2021/12/04 02:33:52;;;;;;;;;;;1.40;99.90;;;;;;5023815;28;20358;-77
2021/12/04 02:36:19;;;;;;;;;;;1.50;99.90;;;;;;5039621;28;19925;-77
2021/12/04 02:38:51;;;;;;;;;;;1.50;99.90;;;;;;5044078;28;19987;-77
2021/12/04 02:41:18;;;;;;;;;;;1.40;99.90;;;;;;5018337;28;19952;-77
2021/12/04 02:43:46;;;;;;;;;;;1.50;99.90;;;;;;5024299;28;20406;-77
2021/12/04 02:46:13;;;;;;;;;;;1.40;99.90;;;;;;5021266;28;19936;-77
2021/12/04 02:48:41;;;;;;;;;;;1.50;99.90;;;;;;5031981;28;19936;-77
2021/12/04 02:51:08;;;;;;;;;;;1.40;99.90;;;;;;5041879;28;19933;-77
2021/12/04 02:53:35;;;;;;;;;;;1.50;99.90;;;;;;5040341;28;19964;-77
2021/12/04 02:56:05;;;;;;;;;;;1.50;99.90;;;;;;5022417;28;20314;-77
2021/12/04 02:58:32;;;;;;;;;;;1.50;99.90;;;;;;5026291;28;20032;-77
2021/12/04 03:00:59;;;;;;;;;;;1.50;99.90;;;;;;5022328;28;19934;-77
2021/12/04 03:03:26;;;;;;;;;;;1.50;99.90;;;;;;5020142;28;20292;-77
2021/12/04 03:05:53;;;;;;;;;;;1.50;99.90;;;;;;5040240;28;19933;-77
2021/12/04 03:08:21;;;;;;;;;;;1.50;99.90;;;;;;5019111;28;20586;-77
2021/12/04 03:10:48;;;;;;;;;;;1.50;99.90;;;;;;5038515;28;19926;-77
2021/12/04 03:13:18;;;;;;;;;;;1.50;99.90;;;;;;5022544;28;20343;-77
2021/12/04 03:15:48;;;;;;;;;;;1.50;99.90;;;;;;5026337;28;20023;-77
2021/12/04 03:18:15;;;;;;;;;;;1.40;99.90;;;;;;5023422;28;19936;-78
2021/12/04 03:20:44;;;;;;;;;;;1.50;99.90;;;;;;5027860;28;20268;-78
2021/12/04 03:23:18;;;;;;;;;;;1.40;99.90;;;;;;5021533;28;19959;-77
2021/12/04 03:25:49;;;;;;;;;;;1.50;99.90;;;;;;5022072;28;19983;-77
2021/12/04 03:28:18;;;;;;;;;;;1.50;99.90;;;;;;5022551;28;20294;-77
2021/12/04 03:30:49;;;;;;;;;;;1.50;99.90;;;;;;5016483;28;19933;-77
2021/12/04 03:41:29;;;;;;;;;;;1.50;99.90;;;;;;5020768;28;19935;-77
2021/12/04 03:43:57;;;;;;;;;;;1.50;99.90;;;;;;5023910;28;19930;-77
2021/12/04 03:46:25;;;;;;;;;;;1.50;99.90;;;;;;5027565;28;20334;-78
2021/12/04 03:48:53;;;;;;;;;;;1.50;99.90;;;;;;5026270;28;19940;-78
2021/12/04 03:51:20;;;;;;;;;;;1.50;99.90;;;;;;5030095;28;20237;-78
2021/12/04 03:53:48;;;;;;;;;;;1.40;99.90;;;;;;5029095;28;19929;-77
2021/12/04 03:56:19;;;;;;;;;;;1.50;99.90;;;;;;5020458;28;19961;-77
2021/12/04 03:58:46;;;;;;;;;;;1.50;99.90;;;;;;5022084;28;19980;-77
2021/12/04 04:01:14;;;;;;;;;;;1.50;99.90;;;;;;5024882;28;19925;-77
2021/12/04 04:03:41;;;;;;;;;;;1.50;99.90;;;;;;5028617;28;19929;-77
2021/12/04 04:06:08;;;;;;;;;;;1.50;99.90;;;;;;5028138;28;19925;-77
2021/12/04 04:08:35;;;;;;;;;;;1.50;99.90;;;;;;5044044;28;19971;-77
2021/12/04 04:11:02;;;;;;;;;;;1.50;99.90;;;;;;5024443;28;19925;-77
2021/12/04 04:13:29;;;;;;;;;;;1.50;99.90;;;;;;5022665;28;20410;-77
2021/12/04 04:15:58;;;;;;;;;;;1.50;99.90;;;;;;5039022;28;19933;-77
2021/12/04 04:18:27;;;;;;;;;;;1.50;99.90;;;;;;5026978;28;19987;-77
2021/12/04 04:20:54;;;;;;;;;;;1.50;99.90;;;;;;5026935;28;19925;-77
2021/12/04 04:23:21;;;;;;;;;;;1.50;99.90;;;;;;5029489;28;19968;-77
2021/12/04 04:25:48;;;;;;;;;;;1.50;99.90;;;;;;5024223;28;20004;-77
2021/12/04 04:28:15;;;;;;;;;;;1.50;99.90;;;;;;5025817;28;20008;-78
2021/12/04 04:30:42;;;;;;;;;;;1.50;99.90;;;;;;5024474;28;19925;-78
2021/12/04 04:33:11;;;;;;;;;;;1.50;99.90;;;;;;5027327;28;19925;-77
2021/12/04 04:35:40;;;;;;;;;;;1.50;99.90;;;;;;5023296;28;19926;-77
2021/12/04 04:38:17;;;;;;;;;;;1.50;99.90;;;;;;5025136;28;19925;-78
2021/12/04 05:00:24;;;;;;;;;;;1.60;99.90;;;;;;4961904;28;19926;-77
2021/12/04 05:11:10;;;;;;;;;;;1.60;99.90;;;;;;5041808;28;20034;-77
2021/12/04 05:13:38;;;;;;;;;;;1.60;99.90;;;;;;5021386;28;19925;-78
2021/12/04 05:16:12;;;;;;;;;;;1.60;99.90;;;;;;5026858;28;20128;-78
2021/12/04 05:18:42;;;;;;;;;;;1.60;99.90;;;;;;5019309;28;20410;-77
2021/12/04 05:21:11;;;;;;;;;;;1.60;99.90;;;;;;5023549;28;20311;-78
2021/12/04 05:23:42;;;;;;;;;;;1.60;99.90;;;;;;5025293;28;20402;-78
2021/12/04 05:26:10;;;;;;;;;;;1.60;99.90;;;;;;5044361;28;19932;-77
2021/12/04 05:28:36;;;;;;;;;;;1.60;99.90;;;;;;5021069;28;19977;-77
2021/12/04 05:31:03;;;;;;;;;;;1.70;99.90;;;;;;5034639;28;19933;-77
2021/12/04 05:33:31;;;;;;;;;;;1.60;99.90;;;;;;5027714;28;20423;-77
2021/12/04 05:35:58;;;;;;;;;;;1.60;99.90;;;;;;5020739;28;20273;-77
2021/12/04 05:38:25;;;;;;;;;;;1.60;99.90;;;;;;5044381;28;20402;-77
2021/12/04 05:40:53;;;;;;;;;;;1.70;99.90;;;;;;5022813;28;19932;-78
2021/12/04 05:43:22;;;;;;;;;;;1.70;99.90;;;;;;5022496;28;19933;-78
2021/12/04 05:45:53;;;;;;;;;;;1.60;99.90;;;;;;5017637;28;19933;-77
2021/12/04 05:48:26;;;;;;;;;;;1.70;99.90;;;;;;5019011;28;19980;-78
2021/12/04 05:51:17;;;;;;;;;;;1.70;99.90;;;;;;5021593;28;19971;-78
2021/12/04 05:53:56;;;;;;;;;;;1.70;99.90;;;;;;5020608;28;19925;-77
2021/12/04 05:56:25;;;;;;;;;;;1.70;99.90;;;;;;5022862;28;19935;-77
2021/12/04 05:58:52;;;;;;;;;;;1.70;99.90;;;;;;5035283;28;20020;-78
2021/12/04 06:01:20;;;;;;;;;;;1.70;99.90;;;;;;5023191;28;20287;-78
2021/12/04 06:03:47;;;;;;;;;;;1.80;99.90;;;;;;5022758;28;19929;-78
2021/12/04 06:06:14;;;;;;;;;;;1.80;99.90;;;;;;5026929;28;19925;-77
2021/12/04 06:08:41;;;;;;;;;;;1.80;99.90;;;;;;5025152;28;20027;-78
2021/12/04 06:11:08;;;;;;;;;;;1.80;99.90;;;;;;5023997;28;20342;-78
2021/12/04 06:13:36;;;;;;;;;;;1.80;99.90;;;;;;5028003;28;20343;-78
2021/12/04 06:16:04;;;;;;;;;;;1.80;99.90;;;;;;5025900;28;19932;-78
2021/12/04 06:18:32;;;;;;;;;;;1.80;99.90;;;;;;5042222;28;19972;-78
2021/12/04 06:23:47;;;;;;;;;;;1.90;99.90;;;;;;5021166;28;20383;-77
2021/12/04 06:26:14;;;;;;;;;;;1.80;99.90;;;;;;5036161;28;19929;-78
2021/12/04 06:28:42;;;;;;;;;;;1.90;99.90;;;;;;5025353;28;20316;-77
2021/12/04 06:31:10;;;;;;;;;;;1.90;99.90;;;;;;5030467;28;20087;-78
2021/12/04 06:33:38;;;;;;;;;;;1.90;99.90;;;;;;5024302;28;19933;-77
2021/12/04 06:36:06;;;;;;;;;;;1.90;99.90;;;;;;5014515;28;19932;-77
2021/12/04 06:38:33;;;;;;;;;;;1.90;99.90;;;;;;5022788;28;20337;-77
2021/12/04 06:41:00;;;;;;;;;;;1.90;99.90;;;;;;5037300;28;19937;-78
2021/12/04 06:43:27;;;;;;;;;;;1.90;99.90;;;;;;5020770;28;20348;-77
2021/12/04 06:46:00;;;;;;;;;;;2.00;99.90;;;;;;5027297;28;21581;-78
2021/12/04 06:48:34;;;;;;;;;;;2.00;99.90;;;;;;5022564;28;19936;-77
2021/12/04 06:51:05;;;;;;;;;;;2.00;99.90;;;;;;5027207;28;19940;-78
2021/12/04 06:53:37;;;;;;;;;;;2.00;99.90;;;;;;5031912;28;19984;-78
2021/12/04 06:56:06;;;;;;;;;;;2.00;99.90;;;;;;5043717;28;20358;-77
2021/12/04 06:58:35;;;;;;;;;;;2.00;99.90;;;;;;5021252;28;20036;-77
2021/12/04 07:01:04;;;;;;;;;;;2.00;99.90;;;;;;5040387;28;20444;-77
2021/12/04 07:03:31;;;;;;;;;;;2.10;99.90;;;;;;5038484;28;19929;-77
2021/12/04 07:05:58;;;;;;;;;;;2.10;99.90;;;;;;5025191;28;20474;-77
2021/12/04 07:08:25;;;;;;;;;;;2.10;99.90;;;;;;5027562;28;20400;-78
2021/12/04 07:10:52;;;;;;;;;;;2.10;99.90;;;;;;5028516;28;20310;-77
2021/12/04 07:13:19;;;;;;;;;;;2.10;99.90;;;;;;5024198;28;19931;-78
2021/12/04 07:15:46;;;;;;;;;;;2.10;99.90;;;;;;5030111;28;19928;-77
2021/12/04 07:18:15;;;;;;;;;;;2.10;99.90;;;;;;5029267;28;20422;-78
2021/12/04 07:20:44;;;;;;;;;;;2.10;99.90;;;;;;5043885;28;19925;-79
2021/12/04 07:23:13;;;;;;;;;;;2.20;99.90;;;;;;5027736;28;20036;-78
2021/12/04 07:25:40;;;;;;;;;;;2.20;99.90;;;;;;5036029;28;19933;-78
2021/12/04 07:28:07;;;;;;;;;;;2.20;99.90;;;;;;5026143;28;19932;-77
2021/12/04 07:30:34;;;;;;;;;;;2.20;99.90;;;;;;5027983;28;20358;-77
2021/12/04 07:33:01;;;;;;;;;;;2.20;99.90;;;;;;5020257;28;20354;-77
2021/12/04 07:35:30;;;;;;;;;;;2.20;99.90;;;;;;5028910;28;19932;-77
2021/12/04 07:37:57;;;;;;;;;;;2.20;99.90;;;;;;5022717;28;19971;-76
2021/12/04 07:40:24;;;;;;;;;;;2.20;99.90;;;;;;5024942;28;20329;-76
2021/12/04 07:42:51;;;;;;;;;;;2.30;99.90;;;;;;5025173;28;19933;-77
2021/12/04 07:45:18;;;;;;;;;;;2.30;99.90;;;;;;5038504;28;19940;-77
2021/12/04 07:47:46;;;;;;;;;;;2.30;99.90;;;;;;5150866;22;20292;-89
2021/12/04 07:50:14;;;;;;;;;;;2.30;99.90;;;;;;5087222;28;19913;-89
2021/12/04 07:52:43;;;;;;;;;;;2.30;99.90;;;;;;5058510;28;19925;-90
2021/12/04 07:55:10;;;;;;;;;;;2.40;99.90;;;;;;5060090;28;19940;-90
2021/12/04 07:57:38;;;;;;;;;;;2.30;99.90;;;;;;5085950;28;19916;-90
2021/12/04 08:00:06;;;;;;;;;;;2.30;99.90;;;;;;5055134;28;19953;-88
2021/12/04 08:02:33;;;;;;;;;;;2.40;99.90;;;;;;5056669;28;19909;-88
2021/12/04 08:05:01;;;;;;;;;;;2.40;99.90;;;;;;5057036;28;19947;-88
2021/12/04 08:07:28;;;;;;;;;;;2.40;99.90;;;;;;5052981;28;20274;-89
2021/12/04 08:09:56;;;;;;;;;;;2.40;99.90;;;;;;5050715;28;19929;-89
2021/12/04 08:12:26;;;;;;;;;;;2.40;99.90;;;;;;5079809;28;19917;-92
2021/12/04 08:17:56;;;;;;;;;;;2.50;99.90;;;;;;5110611;22;19931;-91
2021/12/04 08:20:25;;;;;;;;;;;2.40;99.90;;;;;;5077074;28;19935;-91
2021/12/04 08:22:52;;;;;;;;;;;2.40;99.90;;;;;;5070657;28;19964;-90
2021/12/04 08:25:21;;;;;;;;;;;2.50;99.90;;;;;;5077466;28;19912;-91
2021/12/04 08:27:49;;;;;;;;;;;2.50;99.90;;;;;;5075323;28;19924;-90
2021/12/04 08:30:18;;;;;;;;;;;2.50;99.90;;;;;;5070647;28;19939;-90
2021/12/04 08:32:45;;;;;;;;;;;2.50;99.90;;;;;;5067608;28;19963;-91
2021/12/04 08:35:13;;;;;;;;;;;2.50;99.90;;;;;;5070395;28;19925;-90
2021/12/04 08:37:40;;;;;;;;;;;2.50;99.90;;;;;;5068268;28;19913;-89
2021/12/04 08:40:11;;;;;;;;;;;2.50;99.90;;;;;;5067523;28;19921;-89
2021/12/04 08:42:40;;;;;;;;;;;2.60;99.90;;;;;;5079479;28;19950;-86
2021/12/04 08:45:08;;;;;;;;;;;2.60;99.90;;;;;;5066590;28;19933;-92
2021/12/04 08:47:36;;;;;;;;;;;2.60;99.90;;;;;;5064048;28;20184;-87
2021/12/04 08:50:03;;;;;;;;;;;2.60;99.90;;;;;;5071988;28;19931;-91
2021/12/04 08:52:30;;;;;;;;;;;2.60;99.90;;;;;;5064333;28;19980;-87
2021/12/04 08:54:57;;;;;;;;;;;2.70;99.90;;;;;;5061354;28;19925;-88
2021/12/04 08:57:24;;;;;;;;;;;2.70;99.90;;;;;;5060738;28;19983;-87
2021/12/04 08:59:53;;;;;;;;;;;2.70;99.90;;;;;;5065875;28;20099;-89
2021/12/04 09:02:20;;;;;;;;;;;2.70;99.90;;;;;;5065245;28;19940;-88
2021/12/04 09:04:47;;;;;;;;;;;2.70;99.90;;;;;;5065760;28;19931;-88
2021/12/04 09:07:18;;;;;;;;;;;2.70;99.90;;;;;;5062664;28;19932;-89
2021/12/04 09:09:45;;;;;;;;;;;2.80;99.90;;;;;;5070567;28;20038;-90
2021/12/04 09:12:13;;;;;;;;;;;2.80;99.90;;;;;;5061920;28;19925;-90
2021/12/04 09:14:41;;;;;;;;;;;2.80;99.90;;;;;;5064595;28;19940;-90
2021/12/04 09:17:11;;;;;;;;;;;2.80;99.90;;;;;;5063568;28;19988;-89
2021/12/04 09:19:38;;;;;;;;;;;2.80;99.90;;;;;;5080579;28;19924;-91
2021/12/04 09:22:07;;;;;;;;;;;2.90;99.90;;;;;;5057440;28;20322;-89
2021/12/04 09:24:39;;;;;;;;;;;2.90;99.90;;;;;;5065253;28;20078;-90
2021/12/04 09:27:13;;;;;;;;;;;2.90;99.90;;;;;;5062848;28;20350;-88
2021/12/04 09:29:49;;;;;;;;;;;3.00;99.90;;;;;;5060873;28;19931;-88
2021/12/04 09:32:44;;;;;;;;;;;3.00;99.90;;;;;;5071947;28;20457;-89
2021/12/04 10:05:53;;;;;;;;;;;3.30;99.90;;;;;;5025299;28;19940;-89
2021/12/04 10:11:39;;;;;;;;;;;3.40;99.90;;;;;;5056085;28;19924;-90
2021/12/04 10:19:53;;;;;;;;;;;3.40;99.90;;;;;;5038627;28;19927;-89
2021/12/04 10:22:30;;;;;;;;;;;3.50;99.90;;;;;;5061298;28;19936;-91
2021/12/04 10:33:26;;;;;;;;;;;3.60;99.90;;;;;;5068985;28;19920;-89
2021/12/04 10:35:53;;;;;;;;;;;3.60;99.90;;;;;;5052875;28;19929;-87
2021/12/04 10:38:23;;;;;;;;;;;3.60;99.90;;;;;;5054387;28;19933;-88
2021/12/04 10:40:51;;;;;;;;;;;3.60;99.90;;;;;;5057538;28;19986;-90
2021/12/04 10:43:20;;;;;;;;;;;3.60;99.90;;;;;;5053035;28;19925;-88
2021/12/04 10:45:50;;;;;;;;;;;3.70;99.90;;;;;;5056186;28;19936;-89
2021/12/04 10:48:21;;;;;;;;;;;3.70;99.90;;;;;;5055196;28;19924;-88
2021/12/04 10:50:55;;;;;;;;;;;3.70;99.90;;;;;;5059249;28;19929;-88
2021/12/04 10:53:31;;;;;;;;;;;3.70;99.90;;;;;;5051731;28;20330;-88
2021/12/04 10:56:10;;;;;;;;;;;3.80;99.90;;;;;;5054476;28;19925;-89
2021/12/04 11:01:42;;;;;;;;;;;3.80;99.90;;;;;;5037068;28;20343;-88
2021/12/04 11:04:15;;;;;;;;;;;3.80;99.90;;;;;;5034204;28;19932;-88
2021/12/04 11:07:13;;;;;;;;;;;3.90;99.90;;;;;;5039827;28;19940;-88
2021/12/04 11:24:02;;;;;;;;;;;4.00;99.90;;;;;;5052855;28;19944;-88
2021/12/04 11:26:51;;;;;;;;;;;4.10;99.90;;;;;;5055486;28;19925;-89
2021/12/04 11:35:21;;;;;;;;;;;4.30;99.90;;;;;;5064249;28;20015;-89
2021/12/04 11:40:39;;;;;;;;;;;4.40;99.90;;;;;;5032522;28;19928;-89
2021/12/04 11:43:14;;;;;;;;;;;4.40;99.90;;;;;;5059819;28;19940;-88
2021/12/04 11:45:47;;;;;;;;;;;4.40;99.90;;;;;;5060778;28;19933;-89
2021/12/04 11:48:14;;;;;;;;;;;4.40;99.90;;;;;;5060682;28;19955;-90
2021/12/04 11:50:42;;;;;;;;;;;4.50;99.90;;;;;;5061245;28;19925;-88
2021/12/04 11:53:12;;;;;;;;;;;4.50;99.90;;;;;;5062434;28;19947;-89
2021/12/04 11:55:41;;;;;;;;;;;4.50;99.90;;;;;;5058040;28;19974;-88
2021/12/04 11:58:18;;;;;;;;;;;4.60;99.90;;;;;;5059814;28;19925;-89
2021/12/04 12:00:45;;;;;;;;;;;4.60;99.90;;;;;;5063591;28;19976;-88
2021/12/04 12:03:13;;;;;;;;;;;4.70;99.90;;;;;;5064737;28;19925;-89
2021/12/04 12:05:43;;;;;;;;;;;4.70;99.90;;;;;;5062483;28;19967;-88
2021/12/04 12:08:20;;;;;;;;;;;4.70;99.90;;;;;;5059646;28;20189;-89
2021/12/04 12:10:50;;;;;;;;;;;4.80;99.90;;;;;;5058666;28;19932;-90
2021/12/04 12:13:24;;;;;;;;;;;4.80;99.90;;;;;;5056059;28;19943;-89
2021/12/04 12:15:58;;;;;;;;;;;4.80;99.90;;;;;;5070389;28;20019;-90
2021/12/04 12:18:25;;;;;;;;;;;5.10;99.90;;;;;;5060650;28;20395;-87
2021/12/04 12:20:57;;;;;;;;;;;5.00;99.90;;;;;;5061487;28;20328;-90
2021/12/04 12:23:27;;;;;;;;;;;5.10;99.90;;;;;;5059813;28;19943;-91
2021/12/04 12:31:58;;;;;;;;;;;5.10;99.90;;;;;;5055085;28;19929;-89
2021/12/04 12:37:18;;;;;;;;;;;5.20;99.90;;;;;;5040577;28;19921;-89
2021/12/04 12:39:52;;;;;;;;;;;5.10;99.90;;;;;;5055704;28;19978;-90
2021/12/04 12:42:23;;;;;;;;;;;5.20;99.90;;;;;;5055965;28;19972;-91
2021/12/04 12:44:52;;;;;;;;;;;5.20;99.90;;;;;;5049139;28;19970;-90
2021/12/04 12:47:21;;;;;;;;;;;5.20;99.90;;;;;;5043797;28;19925;-90
2021/12/04 12:49:48;;;;;;;;;;;5.20;99.90;;;;;;5063464;28;19928;-90
2021/12/04 12:52:19;;;;;;;;;;;5.20;99.90;;;;;;5053221;28;20417;-90
2021/12/04 12:54:51;;;;;;;;;;;5.30;99.90;;;;;;5056312;28;20353;-90
2021/12/04 12:57:21;;;;;;;;;;;5.20;99.90;;;;;;5045728;28;20004;-92
2021/12/04 13:11:35;;;;;;;;;;;5.30;99.90;;;;;;5039693;28;20023;-92
2021/12/04 13:11:42;;;;;;;;;;;5.40;99.90;;;;;;4980666;28;20035;-93
2021/12/04 13:14:10;;;;;;;;;;;5.40;99.90;;;;;;5019215;28;19925;-89
2021/12/04 13:16:38;;;;;;;;;;;5.50;99.90;;;;;;5060419;28;19925;-90
2021/12/04 13:19:09;;;;;;;;;;;5.50;99.90;;;;;;5049507;28;20477;-90
2021/12/04 13:21:38;;;;;;;;;;;5.50;99.90;;;;;;5048574;28;20024;-90
2021/12/04 13:24:07;;;;;;;;;;;5.50;99.90;;;;;;5062089;28;20317;-89
2021/12/04 13:26:35;;;;;;;;;;;5.50;99.90;;;;;;5050913;28;19924;-89
2021/12/04 13:29:04;;;;;;;;;;;5.50;99.90;;;;;;5047700;28;19940;-89
2021/12/04 13:31:32;;;;;;;;;;;5.60;99.90;;;;;;5044316;28;20012;-90
2021/12/04 13:33:59;;;;;;;;;;;5.60;99.90;;;;;;5056354;28;20027;-90
2021/12/04 13:36:29;;;;;;;;;;;5.60;99.90;;;;;;5060704;28;19929;-89
2021/12/04 13:38:57;;;;;;;;;;;5.60;99.90;;;;;;5041440;28;19925;-90
2021/12/04 13:41:24;;;;;;;;;;;5.60;99.90;;;;;;5045785;28;20028;-89
2021/12/04 13:43:52;;;;;;;;;;;5.70;99.90;;;;;;5048265;28;19986;-91
2021/12/04 13:46:20;;;;;;;;;;;5.70;99.90;;;;;;5056288;28;20358;-91
2021/12/04 13:48:47;;;;;;;;;;;5.70;99.90;;;;;;5067648;22;19924;-76
2021/12/04 13:51:14;;;;;;;;;;;5.70;99.90;;;;;;5063338;28;19959;-76
2021/12/04 13:53:44;;;;;;;;;;;5.70;99.90;;;;;;5058327;28;19933;-76
2021/12/04 13:56:13;;;;;;;;;;;5.70;99.90;;;;;;5056985;28;20015;-76
2021/12/04 13:58:47;;;;;;;;;;;5.70;99.90;;;;;;5057146;28;19925;-76
2021/12/04 14:01:15;;;;;;;;;;;5.70;99.90;;;;;;5053937;28;19955;-76
2021/12/04 14:03:45;;;;;;;;;;;5.70;99.90;;;;;;5059094;28;20070;-76
2021/12/04 14:06:13;;;;;;;;;;;5.80;99.90;;;;;;5052212;28;20393;-76
2021/12/04 14:08:40;;;;;;;;;;;5.80;99.90;;;;;;5058645;28;19932;-76
2021/12/04 14:11:09;;;;;;;;;;;5.80;99.90;;;;;;5060801;28;19931;-76
2021/12/04 14:13:37;;;;;;;;;;;5.90;99.90;;;;;;5061320;28;19924;-76
2021/12/04 14:16:05;;;;;;;;;;;5.80;99.90;;;;;;5055474;28;19938;-76
2021/12/04 14:18:34;;;;;;;;;;;5.80;99.90;;;;;;5064694;28;19982;-76
2021/12/04 14:21:02;;;;;;;;;;;5.80;99.90;;;;;;5055111;28;19930;-76
2021/12/04 14:23:29;;;;;;;;;;;5.90;99.90;;;;;;5060772;28;19933;-76
2021/12/04 14:25:57;;;;;;;;;;;5.90;99.90;;;;;;5061893;28;19978;-76
2021/12/04 14:28:31;;;;;;;;;;;5.90;99.90;;;;;;5058860;28;19982;-76
2021/12/04 14:30:59;;;;;;;;;;;5.90;99.90;;;;;;5055183;28;19928;-76
2021/12/04 14:33:26;;;;;;;;;;;5.90;99.90;;;;;;5065598;28;19925;-75
2021/12/04 14:35:54;;;;;;;;;;;6.00;99.90;;;;;;5054425;28;19925;-76
2021/12/04 14:38:22;;;;;;;;;;;6.00;99.90;;;;;;5057553;28;20474;-77
2021/12/04 14:40:51;;;;;;;;;;;6.00;99.90;;;;;;5058405;28;20015;-77
2021/12/04 14:43:19;;;;;;;;;;;6.00;99.90;;;;;;5053866;28;19928;-77
2021/12/04 14:45:50;;;;;;;;;;;6.00;99.90;;;;;;5071951;28;19925;-75
2021/12/04 14:48:19;;;;;;;;;;;6.00;99.90;;;;;;5052643;28;20374;-76
2021/12/04 14:50:49;;;;;;;;;;;6.00;99.90;;;;;;5061802;28;19970;-76
2021/12/04 14:53:17;;;;;;;;;;;6.10;99.90;;;;;;5058926;28;19924;-76
2021/12/04 14:55:45;;;;;;;;;;;6.10;99.90;;;;;;5053520;28;19964;-76
2021/12/04 14:58:13;;;;;;;;;;;6.00;99.90;;;;;;5053801;28;19986;-76
2021/12/04 15:00:42;;;;;;;;;;;6.00;99.90;;;;;;5055893;28;20019;-76
2021/12/04 15:03:14;;;;;;;;;;;6.00;99.90;;;;;;5065200;28;20421;-76
2021/12/04 15:05:41;;;;;;;;;;;6.10;99.90;;;;;;5062673;28;20065;-76
2021/12/04 15:08:09;;;;;;;;;;;6.00;99.90;;;;;;5065985;28;19928;-76
2021/12/04 15:10:37;;;;;;;;;;;6.00;99.90;;;;;;5052723;28;19932;-75
2021/12/04 15:13:06;;;;;;;;;;;6.00;99.90;;;;;;5064681;28;19933;-77
2021/12/04 15:15:34;;;;;;;;;;;6.10;99.90;;;;;;5079499;28;19959;-75
2021/12/04 15:18:02;;;;;;;;;;;6.00;99.90;;;;;;5065176;28;19925;-77
2021/12/04 15:20:33;;;;;;;;;;;6.00;99.90;;;;;;5062636;28;20386;-76
2021/12/04 15:23:04;;;;;;;;;;;6.00;99.90;;;;;;5054506;28;19939;-76
2021/12/04 15:25:33;;;;;;;;;;;6.10;99.90;;;;;;5061625;28;20544;-76
2021/12/04 15:28:00;;;;;;;;;;;6.10;99.90;;;;;;5062600;28;20390;-76
2021/12/04 15:30:29;;;;;;;;;;;6.10;99.90;;;;;;5061394;28;19925;-76
2021/12/04 15:32:57;;;;;;;;;;;6.10;99.90;;;;;;5075524;28;20336;-76
2021/12/04 15:35:30;;;;;;;;;;;6.10;99.90;;;;;;5044910;28;19929;-76
2021/12/04 15:38:02;;;;;;;;;;;6.10;99.90;;;;;;5062284;28;19928;-75
2021/12/04 15:40:35;;;;;;;;;;;6.10;99.90;;;;;;5060958;28;19963;-76
2021/12/04 15:43:11;;;;;;;;;;;6.20;99.90;;;;;;5066115;28;19990;-76
2021/12/04 15:45:47;;;;;;;;;;;6.10;99.90;;;;;;5062483;28;19933;-78
2021/12/04 15:48:40;;;;;;;;;;;6.20;99.90;;;;;;5065833;28;19924;-77
2021/12/04 15:53:36;;;;;;;;;;;6.20;99.90;;;;;;5182659;22;19925;-75
2021/12/04 15:56:03;;;;;;;;;;;6.20;99.90;;;;;;5020537;28;20379;-75
2021/12/04 15:58:33;;;;;;;;;;;6.20;99.90;;;;;;5028161;28;20051;-75
2021/12/04 16:01:04;;;;;;;;;;;6.20;99.90;;;;;;5023490;28;20342;-75
2021/12/04 16:03:33;;;;;;;;;;;6.20;99.90;;;;;;5013359;28;19929;-75
2021/12/04 16:06:01;;;;;;;;;;;6.10;99.90;;;;;;5007335;28;19925;-75
2021/12/04 16:08:29;;;;;;;;;;;6.20;99.90;;;;;;5011236;28;19933;-75
2021/12/04 16:11:02;;;;;;;;;;;6.20;99.90;;;;;;5007974;28;19992;-74
2021/12/04 16:13:30;;;;;;;;;;;6.20;99.90;;;;;;5007067;28;19930;-75
2021/12/04 16:15:58;;;;;;;;;;;6.20;99.90;;;;;;5006735;28;19926;-75
2021/12/04 16:18:26;;;;;;;;;;;6.20;99.90;;;;;;5020007;28;20015;-75
2021/12/04 16:20:54;;;;;;;;;;;6.20;99.90;;;;;;5015675;28;19968;-75
2021/12/04 16:23:21;;;;;;;;;;;6.20;99.90;;;;;;5010962;28;19929;-75
2021/12/04 16:25:49;;;;;;;;;;;6.30;99.90;;;;;;5022701;28;20009;-76
2021/12/04 16:28:37;;;;;;;;;;;6.20;99.90;;;;;;5005830;28;19925;-74
2021/12/04 16:31:15;;;;;;;;;;;6.20;99.90;;;;;;5005233;28;19930;-75
2021/12/04 16:33:50;;;;;;;;;;;6.20;99.90;;;;;;5006561;28;20060;-75
2021/12/04 16:36:23;;;;;;;;;;;6.20;99.90;;;;;;5006686;28;19929;-75
2021/12/04 16:38:50;;;;;;;;;;;6.20;99.90;;;;;;5004926;28;19934;-75
2021/12/04 16:41:18;;;;;;;;;;;6.20;99.90;;;;;;5001638;28;19949;-75
2021/12/04 16:43:47;;;;;;;;;;;6.20;99.90;;;;;;5002430;28;20261;-75
2021/12/04 16:46:15;;;;;;;;;;;6.30;99.90;;;;;;5009796;28;19932;-74
2021/12/04 16:48:45;;;;;;;;;;;6.20;99.90;;;;;;5028725;28;19957;-75
2021/12/04 16:59:32;;;;;;;;;;;6.20;99.90;;;;;;5003200;28;19975;-74
2021/12/04 17:02:00;;;;;;;;;;;6.30;99.90;;;;;;5009383;28;20346;-74
2021/12/04 17:04:27;;;;;;;;;;;6.20;99.90;;;;;;5003237;28;19980;-75
2021/12/04 17:06:56;;;;;;;;;;;6.20;99.90;;;;;;5011679;28;19929;-75
2021/12/04 17:09:26;;;;;;;;;;;6.20;99.90;;;;;;5008141;28;19925;-76
2021/12/04 17:11:56;;;;;;;;;;;6.20;99.90;;;;;;5008649;28;19925;-74
2021/12/04 17:14:25;;;;;;;;;;;6.20;99.90;;;;;;5004130;28;19932;-75
2021/12/04 17:16:54;;;;;;;;;;;6.20;99.90;;;;;;5005358;28;19934;-75
2021/12/04 17:19:23;;;;;;;;;;;6.20;99.90;;;;;;5001363;28;19934;-75
2021/12/04 17:21:51;;;;;;;;;;;6.20;99.90;;;;;;4997514;28;19925;-75